Time;durP1;ratioP1;P1;durP2;ratioP2;P2;SDS_P1;SDS_P2;PMS_P1;PMS_P2;Temp;Humidity;BMP_temperature;BMP_pressure;BME280_temperature;BME280_humidity;BME280_pressure;Samples;Min_cycle;Max_cycle;Signal;HPM_P1;HPM_P2
2022/01/30 00:00:32;;;;;;;286.20;124.35;;;;;;;;;;4880266;29;20049;-82
2022/01/30 00:03:18;;;;;;;248.90;98.10;;;;;;;;;;4872130;29;20481;-81
2022/01/30 00:06:04;;;;;;;267.10;114.75;;;;;;;;;;4876224;29;20041;-81
2022/01/30 00:08:50;;;;;;;239.90;101.43;;;;;;;;;;4874209;29;20049;-79
2022/01/30 00:11:56;;;;;;;195.80;84.20;;;;;;;;;;4859032;29;20041;-81
2022/01/30 00:14:44;;;;;;;164.23;66.03;;;;;;;;;;4867726;29;20049;-80
2022/01/30 00:17:37;;;;;;;144.75;63.05;;;;;;;;;;4888081;29;20045;-79
2022/01/30 00:20:26;;;;;;;133.05;53.90;;;;;;;;;;4875227;29;20461;-80
2022/01/30 00:23:23;;;;;;;132.82;55.55;;;;;;;;;;4882308;29;20045;-81
2022/01/30 00:26:09;;;;;;;185.02;64.72;;;;;;;;;;4873081;29;20405;-82
2022/01/30 00:28:55;;;;;;;275.27;104.53;;;;;;;;;;4881659;29;20045;-80
2022/01/30 00:31:40;;;;;;;287.63;117.22;;;;;;;;;;4872572;29;20049;-81
2022/01/30 00:34:26;;;;;;;142.10;58.20;;;;;;;;;;4880629;29;20049;-81
2022/01/30 00:37:11;;;;;;;103.28;42.25;;;;;;;;;;4866793;29;20048;-79
2022/01/30 00:39:57;;;;;;;101.03;42.83;;;;;;;;;;4882077;29;20044;-81
2022/01/30 00:42:42;;;;;;;92.65;38.83;;;;;;;;;;4874663;29;20060;-79
2022/01/30 00:45:28;;;;;;;83.32;36.53;;;;;;;;;;4882160;29;20053;-80
2022/01/30 00:48:13;;;;;;;94.55;44.15;;;;;;;;;;4882695;29;20061;-81
2022/01/30 00:50:59;;;;;;;120.85;54.65;;;;;;;;;;4874474;29;20041;-81
2022/01/30 00:53:45;;;;;;;168.98;67.10;;;;;;;;;;4874228;29;20056;-80
2022/01/30 00:56:31;;;;;;;187.05;76.53;;;;;;;;;;4868518;29;20049;-80
2022/01/30 00:59:17;;;;;;;209.73;85.00;;;;;;;;;;4874202;29;20064;-81
2022/01/30 01:02:04;;;;;;;220.73;88.65;;;;;;;;;;4874500;29;20053;-79
2022/01/30 01:04:49;;;;;;;245.60;101.35;;;;;;;;;;4881809;29;20041;-80
2022/01/30 01:07:36;;;;;;;263.90;111.38;;;;;;;;;;4881716;29;20049;-81
2022/01/30 01:10:33;;;;;;;250.57;102.13;;;;;;;;;;4874179;29;20053;-80
2022/01/30 01:25:26;;;;;;;262.63;107.38;;;;;;;;;;4888458;29;20049;-81
2022/01/30 01:28:11;;;;;;;309.73;123.50;;;;;;;;;;4881796;29;20484;-79
2022/01/30 01:30:59;;;;;;;374.85;156.13;;;;;;;;;;4882254;29;20053;-80
2022/01/30 01:36:49;;;;;;;213.63;89.60;;;;;;;;;;4870613;29;20044;-80
2022/01/30 01:39:35;;;;;;;212.25;89.60;;;;;;;;;;4873942;29;20060;-79
2022/01/30 01:42:23;;;;;;;198.43;82.32;;;;;;;;;;4877938;29;20052;-81
2022/01/30 01:45:08;;;;;;;185.93;78.45;;;;;;;;;;4886237;29;20053;-79
2022/01/30 01:47:54;;;;;;;174.75;71.78;;;;;;;;;;4885460;29;20053;-83
2022/01/30 01:50:44;;;;;;;208.55;82.10;;;;;;;;;;4884919;29;20045;-79
2022/01/30 01:53:31;;;;;;;156.73;62.05;;;;;;;;;;4876553;29;20053;-80
2022/01/30 01:56:17;;;;;;;196.68;79.75;;;;;;;;;;4876640;29;20056;-79
2022/01/30 01:59:07;;;;;;;170.85;74.72;;;;;;;;;;4887348;29;20056;-80
2022/01/30 02:02:11;;;;;;;147.88;65.53;;;;;;;;;;4900738;29;20049;-83
2022/01/30 02:04:59;;;;;;;197.73;77.82;;;;;;;;;;4902042;29;20028;-79
2022/01/30 02:08:14;;;;;;;208.52;78.63;;;;;;;;;;4902182;29;20049;-79
2022/01/30 02:11:16;;;;;;;196.88;81.22;;;;;;;;;;4892740;29;20056;-78
2022/01/30 02:26:05;;;;;;;55.30;24.10;;;;;;;;;;4899506;29;20040;-81
2022/01/30 02:28:53;;;;;;;59.67;26.08;;;;;;;;;;4890734;29;20053;-81
2022/01/30 02:31:42;;;;;;;57.35;25.85;;;;;;;;;;4872585;29;20060;-81
2022/01/30 02:34:29;;;;;;;59.58;27.20;;;;;;;;;;4873086;29;20049;-80
2022/01/30 02:37:16;;;;;;;61.83;28.05;;;;;;;;;;4872450;29;20483;-78
2022/01/30 02:40:06;;;;;;;57.30;26.73;;;;;;;;;;4872345;29;20049;-79
2022/01/30 02:42:53;;;;;;;97.22;41.50;;;;;;;;;;4872470;29;20049;-80
2022/01/30 02:45:45;;;;;;;94.07;39.00;;;;;;;;;;4872354;29;20048;-80
2022/01/30 02:48:47;;;;;;;104.35;42.70;;;;;;;;;;4879476;29;20057;-80
2022/01/30 02:51:43;;;;;;;113.43;45.75;;;;;;;;;;4880271;29;20056;-80
2022/01/30 02:54:30;;;;;;;123.03;49.35;;;;;;;;;;4886011;29;20045;-82
2022/01/30 02:57:15;;;;;;;97.90;44.10;;;;;;;;;;4886355;29;20044;-82
2022/01/30 03:00:01;;;;;;;97.03;40.85;;;;;;;;;;4874112;29;20064;-80
2022/01/30 03:02:46;;;;;;;113.53;45.92;;;;;;;;;;4884355;29;20049;-81
2022/01/30 03:05:35;;;;;;;141.35;55.42;;;;;;;;;;4883370;29;20500;-81
2022/01/30 03:08:20;;;;;;;146.20;63.65;;;;;;;;;;4883791;29;20484;-80
2022/01/30 03:11:06;;;;;;;129.95;59.22;;;;;;;;;;4878858;29;20049;-82
2022/01/30 03:13:52;;;;;;;112.07;44.83;;;;;;;;;;4883958;29;20053;-82
2022/01/30 03:16:38;;;;;;;88.93;38.40;;;;;;;;;;4884700;29;20049;-81
2022/01/30 03:19:24;;;;;;;84.32;36.67;;;;;;;;;;4886012;29;20420;-81
2022/01/30 03:22:08;;;;;;;70.20;34.58;;;;;;;;;;4880917;29;20053;-80
2022/01/30 03:24:54;;;;;;;70.82;34.67;;;;;;;;;;4885413;29;20053;-82
2022/01/30 03:28:01;;;;;;;85.95;39.15;;;;;;;;;;4877337;29;20049;-80
2022/01/30 03:30:56;;;;;;;89.00;39.78;;;;;;;;;;4881384;29;20405;-81
2022/01/30 03:33:52;;;;;;;83.82;37.78;;;;;;;;;;4885394;29;20053;-81
2022/01/30 03:36:52;;;;;;;76.65;36.75;;;;;;;;;;4877706;29;20404;-79
2022/01/30 03:39:38;;;;;;;92.30;42.28;;;;;;;;;;4877256;29;20481;-81
2022/01/30 03:42:24;;;;;;;100.25;42.67;;;;;;;;;;4886212;29;20056;-81
2022/01/30 03:45:10;;;;;;;96.72;41.50;;;;;;;;;;4889040;29;20486;-81
2022/01/30 03:47:56;;;;;;;83.55;40.55;;;;;;;;;;4883664;29;20053;-82
2022/01/30 03:50:51;;;;;;;108.53;46.63;;;;;;;;;;4888660;29;20049;-81
2022/01/30 03:53:37;;;;;;;116.50;43.75;;;;;;;;;;4887878;29;20045;-81
2022/01/30 03:56:23;;;;;;;96.15;43.50;;;;;;;;;;4873143;29;20053;-81
2022/01/30 03:59:09;;;;;;;120.65;48.78;;;;;;;;;;4870033;29;20049;-79
2022/01/30 04:01:54;;;;;;;120.13;49.47;;;;;;;;;;4883411;29;20053;-80
2022/01/30 04:04:41;;;;;;;114.32;48.42;;;;;;;;;;4903312;29;20050;-80
2022/01/30 04:07:26;;;;;;;99.97;42.75;;;;;;;;;;4906993;29;20049;-79
2022/01/30 04:10:39;;;;;;;108.70;44.40;;;;;;;;;;4898235;29;20048;-82
2022/01/30 04:13:56;;;;;;;99.60;42.03;;;;;;;;;;4875120;29;20413;-82
2022/01/30 04:17:09;;;;;;;95.28;42.28;;;;;;;;;;4875990;29;20049;-82
2022/01/30 04:20:21;;;;;;;127.95;51.67;;;;;;;;;;4888851;29;20053;-80
2022/01/30 04:23:22;;;;;;;116.45;47.58;;;;;;;;;;4887714;29;20060;-80
2022/01/30 04:26:36;;;;;;;107.70;46.85;;;;;;;;;;4888285;29;20045;-82
2022/01/30 04:29:21;;;;;;;129.38;49.55;;;;;;;;;;4882195;29;20049;-80
2022/01/30 04:32:34;;;;;;;108.40;42.03;;;;;;;;;;4888614;29;20406;-81
2022/01/30 04:35:45;;;;;;;99.35;41.88;;;;;;;;;;4854230;29;20053;-81
2022/01/30 04:56:17;;;;;;;155.68;66.28;;;;;;;;;;4882069;29;20049;-80
2022/01/30 04:59:07;;;;;;;169.63;71.70;;;;;;;;;;4871923;29;20046;-82
2022/01/30 05:02:31;;;;;;;160.27;67.35;;;;;;;;;;4870658;29;20489;-79
2022/01/30 05:09:08;;;;;;;131.85;57.28;;;;;;;;;;4848063;29;20045;-82
2022/01/30 05:12:16;;;;;;;158.40;71.65;;;;;;;;;;4868352;29;20054;-82
2022/01/30 05:15:28;;;;;;;153.32;70.38;;;;;;;;;;4850390;29;20397;-80
2022/01/30 05:18:32;;;;;;;160.38;72.78;;;;;;;;;;4862905;29;20417;-80
2022/01/30 05:21:37;;;;;;;151.20;66.63;;;;;;;;;;4863494;29;20053;-82
2022/01/30 05:24:46;;;;;;;145.52;65.82;;;;;;;;;;4868320;29;20053;-81
2022/01/30 05:27:52;;;;;;;147.27;65.40;;;;;;;;;;4869447;29;20057;-79
2022/01/30 05:30:44;;;;;;;153.52;69.35;;;;;;;;;;4868343;29;20053;-80
2022/01/30 05:33:36;;;;;;;141.95;60.70;;;;;;;;;;4868120;29;20474;-82
2022/01/30 05:36:40;;;;;;;133.63;55.03;;;;;;;;;;4863006;29;20050;-81
2022/01/30 05:39:45;;;;;;;150.13;57.70;;;;;;;;;;4875524;29;20058;-80
2022/01/30 05:43:06;;;;;;;79.32;35.30;;;;;;;;;;4886660;29;20049;-82
2022/01/30 05:46:11;;;;;;;137.25;57.92;;;;;;;;;;4881226;29;20053;-81
2022/01/30 05:49:16;;;;;;;134.50;59.85;;;;;;;;;;4886651;29;20045;-82
2022/01/30 05:52:27;;;;;;;150.15;59.55;;;;;;;;;;4863479;29;20049;-82
2022/01/30 05:55:26;;;;;;;121.10;52.42;;;;;;;;;;4886694;29;20045;-82
2022/01/30 05:58:11;;;;;;;130.90;57.75;;;;;;;;;;4886213;29;20424;-83
2022/01/30 06:01:25;;;;;;;137.95;56.72;;;;;;;;;;4883319;29;20408;-80
2022/01/30 06:04:12;;;;;;;131.30;57.20;;;;;;;;;;4886814;29;20064;-81
2022/01/30 06:06:59;;;;;;;146.95;65.82;;;;;;;;;;4896793;29;20048;-82
2022/01/30 06:09:45;;;;;;;150.30;67.20;;;;;;;;;;4886389;29;20477;-80
2022/01/30 06:12:30;;;;;;;156.38;73.03;;;;;;;;;;4886194;29;20481;-81
2022/01/30 06:15:16;;;;;;;167.68;72.90;;;;;;;;;;4883604;29;20048;-82
2022/01/30 06:18:02;;;;;;;156.90;71.97;;;;;;;;;;4876724;29;20053;-82
2022/01/30 06:20:54;;;;;;;164.65;73.18;;;;;;;;;;4877137;29;20052;-83
2022/01/30 06:23:59;;;;;;;173.13;75.28;;;;;;;;;;4872642;29;20394;-82
2022/01/30 06:27:05;;;;;;;174.20;78.88;;;;;;;;;;4872751;29;20049;-80
2022/01/30 06:30:10;;;;;;;219.13;98.05;;;;;;;;;;4872198;29;20408;-80
2022/01/30 06:33:31;;;;;;;200.43;91.30;;;;;;;;;;4881150;29;20050;-81
2022/01/30 06:36:36;;;;;;;173.77;81.68;;;;;;;;;;4868399;29;20049;-81
2022/01/30 06:39:37;;;;;;;199.65;90.15;;;;;;;;;;4885879;29;20492;-81
2022/01/30 06:42:32;;;;;;;224.93;99.05;;;;;;;;;;4885578;29;20489;-81
2022/01/30 06:45:37;;;;;;;213.00;98.30;;;;;;;;;;4880704;29;20054;-82
2022/01/30 06:48:47;;;;;;;173.65;78.63;;;;;;;;;;4880650;29;20370;-81
2022/01/30 06:51:51;;;;;;;169.63;74.18;;;;;;;;;;4880044;29;20049;-80
2022/01/30 06:55:11;;;;;;;163.18;73.07;;;;;;;;;;4841284;29;20053;-81
2022/01/30 06:58:15;;;;;;;169.15;80.38;;;;;;;;;;4861649;29;20045;-81
2022/01/30 07:01:20;;;;;;;152.37;70.87;;;;;;;;;;4865242;29;20049;-83
2022/01/30 07:04:37;;;;;;;140.35;61.75;;;;;;;;;;4857716;29;20049;-82
2022/01/30 07:07:41;;;;;;;153.82;65.63;;;;;;;;;;4867857;29;20041;-83
2022/01/30 07:10:26;;;;;;;158.75;72.60;;;;;;;;;;4885355;29;20053;-82
2022/01/30 07:13:12;;;;;;;181.13;78.68;;;;;;;;;;4899006;29;20048;-82
2022/01/30 07:15:57;;;;;;;147.95;66.32;;;;;;;;;;4889624;29;20061;-82
2022/01/30 07:18:43;;;;;;;148.40;69.65;;;;;;;;;;4897389;29;20049;-82
2022/01/30 07:21:30;;;;;;;139.55;60.90;;;;;;;;;;4894920;29;20057;-80
2022/01/30 07:24:16;;;;;;;166.43;73.93;;;;;;;;;;4908751;29;20045;-80
2022/01/30 07:27:02;;;;;;;159.48;76.38;;;;;;;;;;4902796;29;20388;-80
2022/01/30 07:29:47;;;;;;;189.88;90.05;;;;;;;;;;4908765;29;20060;-80
2022/01/30 07:32:33;;;;;;;190.88;90.15;;;;;;;;;;4901186;29;20049;-81
2022/01/30 07:35:18;;;;;;;165.50;75.18;;;;;;;;;;4902384;29;20060;-81
2022/01/30 07:38:04;;;;;;;190.48;85.88;;;;;;;;;;4891198;29;20068;-82
2022/01/30 07:40:50;;;;;;;182.05;87.75;;;;;;;;;;4881157;29;20477;-82
2022/01/30 07:43:35;;;;;;;167.82;79.10;;;;;;;;;;4868043;29;20061;-82
2022/01/30 07:46:22;;;;;;;168.27;79.40;;;;;;;;;;4884894;29;20057;-82
2022/01/30 07:49:07;;;;;;;174.48;79.45;;;;;;;;;;4873675;29;20054;-79
2022/01/30 07:51:53;;;;;;;162.50;80.95;;;;;;;;;;4870933;29;20489;-80
2022/01/30 07:54:38;;;;;;;146.50;76.05;;;;;;;;;;4857057;29;20058;-82
2022/01/30 07:57:23;;;;;;;190.55;88.60;;;;;;;;;;4870889;29;20496;-81
2022/01/30 08:00:09;;;;;;;180.48;89.15;;;;;;;;;;4864332;29;20054;-82
2022/01/30 08:03:00;;;;;;;206.45;100.80;;;;;;;;;;4874376;29;20045;-80
2022/01/30 08:05:46;;;;;;;128.95;57.72;;;;;;;;;;4873432;29;20493;-82
2022/01/30 08:08:31;;;;;;;162.93;78.18;;;;;;;;;;4850479;29;20057;-83
2022/01/30 08:11:17;;;;;;;180.25;84.95;;;;;;;;;;4856534;29;20050;-82
2022/01/30 08:14:01;;;;;;;276.85;135.13;;;;;;;;;;4865177;29;20199;-83
2022/01/30 08:16:47;;;;;;;203.65;97.93;;;;;;;;;;4868797;29;20049;-82
2022/01/30 08:19:34;;;;;;;113.55;53.15;;;;;;;;;;4892224;29;20086;-83
2022/01/30 08:22:19;;;;;;;75.85;39.28;;;;;;;;;;4870448;29;20054;-81
2022/01/30 08:25:05;;;;;;;64.97;33.58;;;;;;;;;;4878065;29;20053;-82
2022/01/30 08:27:52;;;;;;;71.28;35.17;;;;;;;;;;4882616;29;20057;-82
2022/01/30 08:30:38;;;;;;;91.32;43.03;;;;;;;;;;4882827;29;20053;-82
2022/01/30 08:33:24;;;;;;;62.97;27.83;;;;;;;;;;4882535;29;20049;-82
2022/01/30 08:36:09;;;;;;;70.28;31.48;;;;;;;;;;4882319;29;20053;-82
2022/01/30 08:38:54;;;;;;;42.15;22.55;;;;;;;;;;4864968;29;20484;-82
2022/01/30 08:41:39;;;;;;;40.08;20.23;;;;;;;;;;4878116;29;20053;-82
2022/01/30 08:44:25;;;;;;;44.67;21.85;;;;;;;;;;4863738;29;20046;-81
2022/01/30 08:47:11;;;;;;;67.95;35.28;;;;;;;;;;4867674;29;20058;-82
2022/01/30 08:49:56;;;;;;;93.55;44.67;;;;;;;;;;4873989;29;20049;-81
2022/01/30 08:52:42;;;;;;;62.70;27.75;;;;;;;;;;4864124;29;20062;-82
2022/01/30 08:55:29;;;;;;;71.97;37.05;;;;;;;;;;4872151;29;20045;-82
2022/01/30 08:58:15;;;;;;;46.20;19.00;;;;;;;;;;4881122;29;20049;-83
2022/01/30 09:01:00;;;;;;;39.53;16.35;;;;;;;;;;4881203;29;20049;-82
2022/01/30 09:03:46;;;;;;;53.67;23.33;;;;;;;;;;4880896;29;20401;-81
2022/01/30 09:06:32;;;;;;;19.77;10.40;;;;;;;;;;4881846;29;20061;-80
2022/01/30 09:09:17;;;;;;;24.38;12.55;;;;;;;;;;4880429;29;20049;-80
2022/01/30 09:12:03;;;;;;;43.10;18.70;;;;;;;;;;4897625;29;20049;-81
2022/01/30 09:14:49;;;;;;;22.77;12.00;;;;;;;;;;4895134;29;20037;-82
2022/01/30 09:17:35;;;;;;;15.18;9.10;;;;;;;;;;4879336;29;20057;-82
2022/01/30 09:20:21;;;;;;;20.38;10.93;;;;;;;;;;4875496;29;20405;-82
2022/01/30 09:23:08;;;;;;;26.63;13.18;;;;;;;;;;4874426;29;20049;-82
2022/01/30 09:25:53;;;;;;;28.08;14.55;;;;;;;;;;4887635;29;20060;-81
2022/01/30 09:28:38;;;;;;;28.33;14.00;;;;;;;;;;4881701;29;20045;-81
2022/01/30 09:31:23;;;;;;;38.28;21.25;;;;;;;;;;4887684;29;20045;-81
2022/01/30 09:34:08;;;;;;;30.25;16.08;;;;;;;;;;4881622;29;20049;-81
2022/01/30 09:36:54;;;;;;;16.20;9.43;;;;;;;;;;4887474;29;20049;-82
2022/01/30 09:39:40;;;;;;;23.63;10.50;;;;;;;;;;4888050;29;20460;-84
2022/01/30 09:42:25;;;;;;;27.42;12.15;;;;;;;;;;4881757;29;20500;-82
2022/01/30 09:45:13;;;;;;;18.50;10.65;;;;;;;;;;4881604;29;20053;-82
2022/01/30 09:48:00;;;;;;;30.00;13.88;;;;;;;;;;4893629;29;20127;-82
2022/01/30 09:50:46;;;;;;;35.13;17.95;;;;;;;;;;4906597;29;20408;-82
2022/01/30 09:53:33;;;;;;;18.08;7.70;;;;;;;;;;4900652;29;20048;-82
2022/01/30 09:56:19;;;;;;;32.25;16.80;;;;;;;;;;4898656;29;20049;-80
2022/01/30 09:59:05;;;;;;;32.17;14.55;;;;;;;;;;4905639;29;20048;-84
2022/01/30 10:01:51;;;;;;;31.42;14.20;;;;;;;;;;4899871;29;20052;-83
2022/01/30 10:04:38;;;;;;;25.55;14.57;;;;;;;;;;4899862;29;20052;-81
2022/01/30 10:07:38;;;;;;;23.70;10.70;;;;;;;;;;4899935;29;20053;-82
2022/01/30 10:10:26;;;;;;;28.52;13.80;;;;;;;;;;4878525;29;20048;-82
2022/01/30 10:13:12;;;;;;;11.57;6.55;;;;;;;;;;4906037;29;20048;-81
2022/01/30 10:16:03;;;;;;;26.92;13.82;;;;;;;;;;4899691;29;20485;-82
2022/01/30 10:18:49;;;;;;;22.20;11.38;;;;;;;;;;4900255;29;20488;-82
2022/01/30 10:21:34;;;;;;;25.25;11.18;;;;;;;;;;4885443;29;20048;-81
2022/01/30 10:24:25;;;;;;;31.05;16.08;;;;;;;;;;4899218;29;20044;-82
2022/01/30 10:27:20;;;;;;;15.15;8.23;;;;;;;;;;4899801;29;20056;-79
2022/01/30 10:30:08;;;;;;;23.48;10.90;;;;;;;;;;4899197;29;20052;-81
2022/01/30 10:32:56;;;;;;;18.20;10.18;;;;;;;;;;4887195;29;20059;-83
2022/01/30 10:35:56;;;;;;;24.20;10.57;;;;;;;;;;4898943;29;20048;-81
2022/01/30 10:38:49;;;;;;;15.38;8.50;;;;;;;;;;4894403;29;20040;-80
2022/01/30 10:41:37;;;;;;;21.73;11.43;;;;;;;;;;4908961;29;20048;-84
2022/01/30 10:44:23;;;;;;;26.05;13.38;;;;;;;;;;4899857;29;20061;-84
2022/01/30 10:47:08;;;;;;;23.92;11.48;;;;;;;;;;4888860;29;20049;-82
2022/01/30 10:49:54;;;;;;;22.65;10.30;;;;;;;;;;4871891;29;20496;-82
2022/01/30 10:52:47;;;;;;;23.70;12.98;;;;;;;;;;4880506;29;20409;-85
2022/01/30 10:55:40;;;;;;;33.22;15.15;;;;;;;;;;4876919;29;20404;-85
2022/01/30 10:58:27;;;;;;;18.83;10.80;;;;;;;;;;4872772;29;20045;-83
2022/01/30 11:01:23;;;;;;;22.67;10.50;;;;;;;;;;4874630;29;20061;-82
2022/01/30 11:04:40;;;;;;;17.63;10.32;;;;;;;;;;4881500;29;20045;-83
2022/01/30 11:07:29;;;;;;;25.08;13.18;;;;;;;;;;4867361;29;20053;-83
2022/01/30 11:10:23;;;;;;;19.40;11.20;;;;;;;;;;4874769;29;20490;-82
2022/01/30 11:13:09;;;;;;;27.30;11.00;;;;;;;;;;4874700;29;20041;-81
2022/01/30 11:16:55;;;;;;;31.63;11.80;;;;;;;;;;4852793;29;20413;-82
2022/01/30 11:19:01;;;;;;;17.63;11.13;;;;;;;;;;4874853;29;20049;-83
2022/01/30 11:21:51;;;;;;;21.80;11.38;;;;;;;;;;4883964;29;20046;-83
2022/01/30 11:24:48;;;;;;;22.40;11.90;;;;;;;;;;4874795;29;20045;-84
2022/01/30 11:27:34;;;;;;;20.25;10.75;;;;;;;;;;4890276;29;20409;-83
2022/01/30 11:30:20;;;;;;;14.57;8.18;;;;;;;;;;4865378;29;20040;-83
2022/01/30 11:33:06;;;;;;;19.08;11.63;;;;;;;;;;4887688;29;20041;-82
2022/01/30 11:35:52;;;;;;;16.52;9.88;;;;;;;;;;4882235;29;20052;-82
2022/01/30 11:38:40;;;;;;;24.27;11.43;;;;;;;;;;4872572;29;20053;-83
2022/01/30 11:41:26;;;;;;;20.67;9.27;;;;;;;;;;4880137;29;20366;-82
2022/01/30 11:44:17;;;;;;;13.32;7.00;;;;;;;;;;4879936;29;20053;-83
2022/01/30 11:47:07;;;;;;;20.60;10.02;;;;;;;;;;4880177;29;20053;-83
2022/01/30 11:50:04;;;;;;;22.35;9.52;;;;;;;;;;4886832;29;20053;-81
2022/01/30 11:53:09;;;;;;;19.75;9.90;;;;;;;;;;4879834;29;20034;-80
2022/01/30 11:56:00;;;;;;;17.48;9.00;;;;;;;;;;4879766;29;20061;-82
2022/01/30 11:58:49;;;;;;;28.95;13.05;;;;;;;;;;4880888;29;20057;-82
2022/01/30 12:01:37;;;;;;;21.02;9.68;;;;;;;;;;4888961;29;20049;-82
2022/01/30 12:04:25;;;;;;;24.88;9.90;;;;;;;;;;4884297;29;20052;-84
2022/01/30 12:07:35;;;;;;;22.52;10.32;;;;;;;;;;4876480;29;20048;-81
2022/01/30 12:10:21;;;;;;;19.17;10.38;;;;;;;;;;4877685;29;20052;-82
2022/01/30 12:13:06;;;;;;;21.10;10.55;;;;;;;;;;4876234;29;20044;-81
2022/01/30 12:15:53;;;;;;;21.80;10.15;;;;;;;;;;4876011;29;20401;-81
2022/01/30 12:18:45;;;;;;;22.42;9.38;;;;;;;;;;4890243;29;20045;-82
2022/01/30 12:21:29;;;;;;;23.35;10.60;;;;;;;;;;4889182;29;20412;-81
2022/01/30 12:24:28;;;;;;;12.65;7.88;;;;;;;;;;4883347;29;20044;-82
2022/01/30 12:27:22;;;;;;;23.55;11.55;;;;;;;;;;4883461;29;20068;-81
2022/01/30 12:30:32;;;;;;;16.20;8.13;;;;;;;;;;4888997;29;20053;-82
2022/01/30 12:33:38;;;;;;;17.17;9.57;;;;;;;;;;4883115;29;20417;-82
2022/01/30 12:36:25;;;;;;;24.70;13.25;;;;;;;;;;4887851;29;20484;-80
2022/01/30 12:39:16;;;;;;;85.80;32.97;;;;;;;;;;4890705;29;20056;-82
2022/01/30 12:42:01;;;;;;;58.00;23.63;;;;;;;;;;4888599;29;20061;-81
2022/01/30 12:44:48;;;;;;;29.90;14.77;;;;;;;;;;4884247;29;20053;-81
2022/01/30 12:47:49;;;;;;;30.00;15.93;;;;;;;;;;4885858;29;20061;-82
2022/01/30 12:50:36;;;;;;;32.45;17.55;;;;;;;;;;4887585;29;20045;-83
2022/01/30 12:53:21;;;;;;;41.92;22.25;;;;;;;;;;4884798;29;20045;-83
2022/01/30 12:56:07;;;;;;;40.20;19.13;;;;;;;;;;4887153;29;20041;-80
2022/01/30 12:58:56;;;;;;;31.70;17.52;;;;;;;;;;4886276;29;20045;-83
2022/01/30 13:01:45;;;;;;;64.55;28.67;;;;;;;;;;4891011;29;20053;-82
2022/01/30 13:04:30;;;;;;;50.92;22.70;;;;;;;;;;4899100;29;20053;-82
2022/01/30 13:07:16;;;;;;;42.05;14.32;;;;;;;;;;4897764;29;20049;-83
2022/01/30 13:10:09;;;;;;;50.55;22.23;;;;;;;;;;4899035;29;20033;-80
2022/01/30 13:13:00;;;;;;;42.38;19.92;;;;;;;;;;4899447;29;20037;-83
2022/01/30 13:15:56;;;;;;;52.05;23.15;;;;;;;;;;4895729;29;20061;-84
2022/01/30 13:18:43;;;;;;;30.33;14.60;;;;;;;;;;4901098;29;20053;-83
2022/01/30 13:21:31;;;;;;;43.88;19.52;;;;;;;;;;4901670;29;20036;-81
2022/01/30 13:24:18;;;;;;;31.27;16.60;;;;;;;;;;4903093;29;20033;-82
2022/01/30 13:27:09;;;;;;;53.58;24.92;;;;;;;;;;4892001;29;20041;-80
2022/01/30 13:29:54;;;;;;;69.90;28.58;;;;;;;;;;4908344;29;20029;-82
2022/01/30 13:32:40;;;;;;;53.53;25.92;;;;;;;;;;4897224;29;20057;-82
2022/01/30 13:35:30;;;;;;;76.15;39.30;;;;;;;;;;4903898;29;20053;-82
2022/01/30 13:38:16;;;;;;;53.33;29.10;;;;;;;;;;4903795;29;20048;-81
2022/01/30 13:41:05;;;;;;;61.40;28.23;;;;;;;;;;4902373;29;20041;-80
2022/01/30 13:43:58;;;;;;;78.95;33.10;;;;;;;;;;4893389;29;20053;-82
2022/01/30 13:46:59;;;;;;;67.85;33.72;;;;;;;;;;4879908;29;20053;-84
2022/01/30 13:49:52;;;;;;;58.03;30.52;;;;;;;;;;4888037;29;20061;-81
2022/01/30 13:52:36;;;;;;;56.35;29.73;;;;;;;;;;4893270;29;20041;-82
2022/01/30 13:55:21;;;;;;;63.55;34.72;;;;;;;;;;4879456;29;20041;-82
2022/01/30 13:58:08;;;;;;;55.10;30.52;;;;;;;;;;4875379;29;20050;-83
2022/01/30 14:00:56;;;;;;;74.20;38.30;;;;;;;;;;4894803;29;20056;-82
2022/01/30 14:03:44;;;;;;;143.52;68.13;;;;;;;;;;4889076;29;20045;-83
2022/01/30 14:06:34;;;;;;;68.32;31.63;;;;;;;;;;4892731;29;20393;-80
2022/01/30 14:09:25;;;;;;;53.95;26.65;;;;;;;;;;4884624;29;20037;-83
2022/01/30 14:12:12;;;;;;;49.72;24.88;;;;;;;;;;4875415;29;20057;-80
2022/01/30 14:15:06;;;;;;;51.10;28.70;;;;;;;;;;4876548;29;20049;-81
2022/01/30 14:18:06;;;;;;;39.17;21.92;;;;;;;;;;4869017;29;20045;-82
2022/01/30 14:20:52;;;;;;;41.45;25.95;;;;;;;;;;4875318;29;20041;-81
2022/01/30 14:23:37;;;;;;;57.13;29.63;;;;;;;;;;4881850;29;20045;-82
2022/01/30 14:26:28;;;;;;;50.65;28.92;;;;;;;;;;4893765;29;20049;-79
2022/01/30 14:29:22;;;;;;;55.70;27.95;;;;;;;;;;4874628;29;20049;-80
2022/01/30 14:32:12;;;;;;;45.60;24.35;;;;;;;;;;4893178;29;20053;-78
2022/01/30 14:34:59;;;;;;;40.42;23.70;;;;;;;;;;4889552;29;20053;-83
2022/01/30 14:37:47;;;;;;;76.78;34.67;;;;;;;;;;4901089;29;20041;-83
2022/01/30 14:40:37;;;;;;;322.20;125.47;;;;;;;;;;4908158;29;20045;-83
2022/01/30 14:43:23;;;;;;;324.80;128.75;;;;;;;;;;4890320;29;20048;-80
2022/01/30 14:46:08;;;;;;;74.40;34.78;;;;;;;;;;4892417;29;20044;-81
2022/01/30 14:48:53;;;;;;;59.53;33.00;;;;;;;;;;4886748;29;20041;-81
2022/01/30 14:51:39;;;;;;;47.72;27.73;;;;;;;;;;4907786;29;20048;-81
2022/01/30 14:54:25;;;;;;;62.35;32.72;;;;;;;;;;4890503;29;20045;-83
2022/01/30 14:57:10;;;;;;;72.60;32.92;;;;;;;;;;4883225;29;20045;-83
2022/01/30 14:59:55;;;;;;;110.03;53.13;;;;;;;;;;4874333;29;20045;-82
2022/01/30 15:02:41;;;;;;;92.78;51.10;;;;;;;;;;4898025;29;20048;-83
2022/01/30 15:05:26;;;;;;;66.10;32.20;;;;;;;;;;4904805;29;20049;-80
2022/01/30 15:08:11;;;;;;;105.40;51.97;;;;;;;;;;4882530;29;20048;-84
2022/01/30 15:10:57;;;;;;;72.68;38.55;;;;;;;;;;4885100;29;20045;-82
2022/01/30 15:13:43;;;;;;;64.95;38.03;;;;;;;;;;4888448;29;20045;-81
2022/01/30 15:16:41;;;;;;;56.88;32.25;;;;;;;;;;4874019;29;20042;-81
2022/01/30 15:19:28;;;;;;;82.00;49.30;;;;;;;;;;4878999;29;20061;-81
2022/01/30 15:22:15;;;;;;;67.78;35.42;;;;;;;;;;4861546;29;20053;-82
2022/01/30 15:25:00;;;;;;;97.88;42.90;;;;;;;;;;4877990;29;20053;-82
2022/01/30 15:27:46;;;;;;;114.00;49.63;;;;;;;;;;4876785;29;20053;-81
2022/01/30 15:30:34;;;;;;;208.05;95.57;;;;;;;;;;4883069;29;20049;-83
2022/01/30 15:33:19;;;;;;;135.38;61.53;;;;;;;;;;4871127;29;20041;-81
2022/01/30 15:36:04;;;;;;;102.78;49.60;;;;;;;;;;4888026;29;20053;-83
2022/01/30 15:38:50;;;;;;;103.93;39.63;;;;;;;;;;4887720;29;20049;-80
2022/01/30 15:41:36;;;;;;;93.35;39.20;;;;;;;;;;4871980;29;20492;-82
2022/01/30 15:44:21;;;;;;;81.03;40.10;;;;;;;;;;4879887;29;20045;-81
2022/01/30 15:50:11;;;;;;;115.85;43.20;;;;;;;;;;4874141;29;20398;-81
2022/01/30 15:52:57;;;;;;;251.85;93.53;;;;;;;;;;4889470;29;20488;-81
2022/01/30 15:55:42;;;;;;;169.00;86.57;;;;;;;;;;4883177;29;20045;-79
2022/01/30 15:58:29;;;;;;;166.77;78.65;;;;;;;;;;4883295;29;20052;-81
2022/01/30 16:01:14;;;;;;;132.52;67.22;;;;;;;;;;4875799;29;20044;-80
2022/01/30 16:04:02;;;;;;;170.30;79.00;;;;;;;;;;4869530;29;20045;-79
2022/01/30 16:06:51;;;;;;;274.08;110.22;;;;;;;;;;4891868;29;20048;-79
2022/01/30 16:09:38;;;;;;;192.68;93.63;;;;;;;;;;4888103;29;20041;-79
2022/01/30 16:18:15;;;;;;;;;;;;;;;;;;4878274;29;20053;-82
2022/01/30 16:21:00;;;;;;;258.73;117.70;;;;;;;;;;4886430;29;19916;-83
2022/01/30 16:23:46;;;;;;;248.15;112.03;;;;;;;;;;4894891;29;20057;-84
2022/01/30 16:26:32;;;;;;;245.57;117.78;;;;;;;;;;4870111;29;20393;-82
2022/01/30 16:29:17;;;;;;;251.82;122.68;;;;;;;;;;4878120;29;20404;-81
2022/01/30 16:32:07;;;;;;;277.50;131.57;;;;;;;;;;4872469;29;20049;-83
2022/01/30 16:34:52;;;;;;;303.33;142.43;;;;;;;;;;4871006;29;20049;-83
2022/01/30 16:37:39;;;;;;;313.98;145.40;;;;;;;;;;4891171;29;20061;-83
2022/01/30 16:40:23;;;;;;;243.50;118.90;;;;;;;;;;4866392;29;20374;-82
2022/01/30 16:43:21;;;;;;;221.23;107.75;;;;;;;;;;4869821;29;20496;-84
2022/01/30 16:46:21;;;;;;;173.05;80.85;;;;;;;;;;4882016;29;20049;-82
2022/01/30 16:49:06;;;;;;;155.70;72.68;;;;;;;;;;4880969;29;20401;-84
2022/01/30 16:51:52;;;;;;;152.43;64.57;;;;;;;;;;4890144;29;20049;-80
2022/01/30 16:54:38;;;;;;;151.40;67.63;;;;;;;;;;4882601;29;20045;-80
2022/01/30 16:57:27;;;;;;;111.88;53.33;;;;;;;;;;4882747;29;20507;-79
2022/01/30 17:00:13;;;;;;;104.13;47.80;;;;;;;;;;4894587;29;20048;-79
2022/01/30 17:02:58;;;;;;;76.03;38.25;;;;;;;;;;4879895;29;20426;-79
2022/01/30 17:05:44;;;;;;;60.17;30.75;;;;;;;;;;4875525;29;20053;-80
2022/01/30 17:08:30;;;;;;;62.63;32.20;;;;;;;;;;4871410;29;20481;-82
2022/01/30 17:11:18;;;;;;;54.55;26.45;;;;;;;;;;4878367;29;20049;-80
2022/01/30 17:14:03;;;;;;;48.35;23.50;;;;;;;;;;4871141;29;20048;-79
2022/01/30 17:16:49;;;;;;;48.95;26.88;;;;;;;;;;4900104;29;20045;-79
2022/01/30 17:19:34;;;;;;;29.98;15.00;;;;;;;;;;4884688;29;20040;-81
2022/01/30 17:22:20;;;;;;;52.40;30.25;;;;;;;;;;4879869;29;20048;-80